sensor_id;sensor_type;location;lat;lon;timestamp;P1;durP1;ratioP1;P2;durP2;ratioP2
15526;SDS011;7865;50.918;4.510;2022-10-18T00:02:16;9.30;;;6.72;;
15526;SDS011;7865;50.918;4.510;2022-10-18T00:07:20;10.07;;;6.15;;
15526;SDS011;7865;50.918;4.510;2022-10-18T00:12:21;11.20;;;6.40;;
15526;SDS011;7865;50.918;4.510;2022-10-18T00:17:22;6.50;;;5.82;;
15526;SDS011;7865;50.918;4.510;2022-10-18T00:22:23;8.88;;;6.43;;
15526;SDS011;7865;50.918;4.510;2022-10-18T00:27:27;12.50;;;6.85;;
15526;SDS011;7865;50.918;4.510;2022-10-18T00:32:29;8.75;;;6.70;;
15526;SDS011;7865;50.918;4.510;2022-10-18T00:37:31;10.15;;;6.82;;
15526;SDS011;7865;50.918;4.510;2022-10-18T00:42:33;10.63;;;6.78;;
15526;SDS011;7865;50.918;4.510;2022-10-18T00:47:36;7.55;;;6.68;;
15526;SDS011;7865;50.918;4.510;2022-10-18T00:52:38;9.25;;;6.68;;
15526;SDS011;7865;50.918;4.510;2022-10-18T00:57:43;7.65;;;6.85;;
15526;SDS011;7865;50.918;4.510;2022-10-18T01:02:46;15.05;;;7.32;;
15526;SDS011;7865;50.918;4.510;2022-10-18T01:23:44;11.27;;;7.65;;
15526;SDS011;7865;50.918;4.510;2022-10-18T01:33:57;12.07;;;8.43;;
15526;SDS011;7865;50.918;4.510;2022-10-18T01:39:03;13.40;;;8.25;;
15526;SDS011;7865;50.918;4.510;2022-10-18T01:44:08;10.23;;;7.90;;
15526;SDS011;7865;50.918;4.510;2022-10-18T01:49:14;11.80;;;7.85;;
15526;SDS011;7865;50.918;4.510;2022-10-18T01:54:17;11.40;;;8.15;;
15526;SDS011;7865;50.918;4.510;2022-10-18T01:59:46;11.40;;;8.18;;
15526;SDS011;7865;50.918;4.510;2022-10-18T02:05:01;8.95;;;7.57;;
15526;SDS011;7865;50.918;4.510;2022-10-18T02:10:14;10.65;;;7.78;;
15526;SDS011;7865;50.918;4.510;2022-10-18T02:15:21;10.20;;;7.43;;
15526;SDS011;7865;50.918;4.510;2022-10-18T02:20:25;8.68;;;7.47;;
15526;SDS011;7865;50.918;4.510;2022-10-18T02:25:29;8.35;;;6.75;;
15526;SDS011;7865;50.918;4.510;2022-10-18T02:30:36;8.88;;;7.55;;
15526;SDS011;7865;50.918;4.510;2022-10-18T02:35:44;9.02;;;6.78;;
15526;SDS011;7865;50.918;4.510;2022-10-18T02:40:49;10.75;;;7.80;;
15526;SDS011;7865;50.918;4.510;2022-10-18T02:45:51;10.10;;;7.40;;
15526;SDS011;7865;50.918;4.510;2022-10-18T02:50:52;14.13;;;8.20;;
15526;SDS011;7865;50.918;4.510;2022-10-18T02:55:53;12.82;;;8.63;;
15526;SDS011;7865;50.918;4.510;2022-10-18T03:00:54;11.45;;;8.35;;
15526;SDS011;7865;50.918;4.510;2022-10-18T03:05:55;12.23;;;8.98;;
15526;SDS011;7865;50.918;4.510;2022-10-18T03:10:56;10.40;;;8.38;;
15526;SDS011;7865;50.918;4.510;2022-10-18T03:15:58;12.45;;;8.82;;
15526;SDS011;7865;50.918;4.510;2022-10-18T03:21:03;13.30;;;9.70;;
15526;SDS011;7865;50.918;4.510;2022-10-18T03:26:05;14.07;;;9.57;;
15526;SDS011;7865;50.918;4.510;2022-10-18T03:31:06;11.07;;;8.95;;
15526;SDS011;7865;50.918;4.510;2022-10-18T03:36:07;21.08;;;10.32;;
15526;SDS011;7865;50.918;4.510;2022-10-18T03:41:09;15.15;;;10.07;;
15526;SDS011;7865;50.918;4.510;2022-10-18T03:46:10;16.77;;;11.38;;
15526;SDS011;7865;50.918;4.510;2022-10-18T03:51:11;15.05;;;10.52;;
15526;SDS011;7865;50.918;4.510;2022-10-18T03:56:12;16.33;;;9.98;;
15526;SDS011;7865;50.918;4.510;2022-10-18T04:01:14;15.82;;;11.55;;
15526;SDS011;7865;50.918;4.510;2022-10-18T04:06:15;18.65;;;11.15;;
15526;SDS011;7865;50.918;4.510;2022-10-18T04:11:16;14.95;;;11.10;;
15526;SDS011;7865;50.918;4.510;2022-10-18T04:16:17;17.23;;;10.82;;
15526;SDS011;7865;50.918;4.510;2022-10-18T04:21:18;17.20;;;10.93;;
15526;SDS011;7865;50.918;4.510;2022-10-18T04:26:19;16.65;;;11.60;;
15526;SDS011;7865;50.918;4.510;2022-10-18T04:31:21;18.65;;;11.40;;
15526;SDS011;7865;50.918;4.510;2022-10-18T04:36:22;17.65;;;11.93;;
15526;SDS011;7865;50.918;4.510;2022-10-18T04:41:23;17.98;;;11.88;;
15526;SDS011;7865;50.918;4.510;2022-10-18T04:46:24;17.90;;;11.75;;
15526;SDS011;7865;50.918;4.510;2022-10-18T04:51:28;17.70;;;13.18;;
15526;SDS011;7865;50.918;4.510;2022-10-18T04:56:29;22.38;;;12.68;;
15526;SDS011;7865;50.918;4.510;2022-10-18T05:01:31;32.72;;;14.50;;
15526;SDS011;7865;50.918;4.510;2022-10-18T05:06:32;18.58;;;12.98;;
15526;SDS011;7865;50.918;4.510;2022-10-18T05:11:33;17.23;;;12.35;;
15526;SDS011;7865;50.918;4.510;2022-10-18T05:16:34;19.88;;;13.10;;
15526;SDS011;7865;50.918;4.510;2022-10-18T05:21:36;20.00;;;13.63;;
15526;SDS011;7865;50.918;4.510;2022-10-18T05:26:37;20.63;;;12.98;;
15526;SDS011;7865;50.918;4.510;2022-10-18T05:31:39;20.13;;;12.57;;
15526;SDS011;7865;50.918;4.510;2022-10-18T05:36:40;21.58;;;13.13;;
15526;SDS011;7865;50.918;4.510;2022-10-18T05:41:41;18.15;;;12.48;;
15526;SDS011;7865;50.918;4.510;2022-10-18T05:46:42;27.25;;;13.00;;
15526;SDS011;7865;50.918;4.510;2022-10-18T05:51:43;20.23;;;13.52;;
15526;SDS011;7865;50.918;4.510;2022-10-18T05:56:44;21.40;;;12.43;;
15526;SDS011;7865;50.918;4.510;2022-10-18T06:01:46;23.67;;;13.70;;
15526;SDS011;7865;50.918;4.510;2022-10-18T06:06:47;19.65;;;12.88;;
15526;SDS011;7865;50.918;4.510;2022-10-18T06:11:48;20.20;;;12.95;;
15526;SDS011;7865;50.918;4.510;2022-10-18T06:16:49;21.63;;;13.27;;
15526;SDS011;7865;50.918;4.510;2022-10-18T06:21:50;21.48;;;13.75;;
15526;SDS011;7865;50.918;4.510;2022-10-18T06:26:52;19.20;;;13.30;;
15526;SDS011;7865;50.918;4.510;2022-10-18T06:31:53;20.67;;;12.63;;
15526;SDS011;7865;50.918;4.510;2022-10-18T06:36:54;20.45;;;13.52;;
15526;SDS011;7865;50.918;4.510;2022-10-18T06:41:58;23.33;;;12.93;;
15526;SDS011;7865;50.918;4.510;2022-10-18T06:46:59;23.37;;;13.57;;
15526;SDS011;7865;50.918;4.510;2022-10-18T06:52:01;27.13;;;14.32;;
15526;SDS011;7865;50.918;4.510;2022-10-18T06:57:02;20.75;;;13.32;;
15526;SDS011;7865;50.918;4.510;2022-10-18T07:02:03;21.27;;;13.65;;
15526;SDS011;7865;50.918;4.510;2022-10-18T07:07:05;22.65;;;13.48;;
15526;SDS011;7865;50.918;4.510;2022-10-18T07:12:06;23.25;;;12.63;;
15526;SDS011;7865;50.918;4.510;2022-10-18T07:17:07;24.02;;;14.32;;
15526;SDS011;7865;50.918;4.510;2022-10-18T07:22:08;23.38;;;14.25;;
15526;SDS011;7865;50.918;4.510;2022-10-18T07:27:09;24.40;;;13.65;;
15526;SDS011;7865;50.918;4.510;2022-10-18T07:32:10;23.02;;;12.95;;
15526;SDS011;7865;50.918;4.510;2022-10-18T07:37:11;22.42;;;12.20;;
15526;SDS011;7865;50.918;4.510;2022-10-18T07:42:12;21.95;;;13.15;;
15526;SDS011;7865;50.918;4.510;2022-10-18T07:47:14;21.90;;;11.43;;
15526;SDS011;7865;50.918;4.510;2022-10-18T07:52:15;27.05;;;12.40;;
15526;SDS011;7865;50.918;4.510;2022-10-18T07:57:16;26.65;;;13.75;;
15526;SDS011;7865;50.918;4.510;2022-10-18T08:02:17;25.25;;;14.02;;
15526;SDS011;7865;50.918;4.510;2022-10-18T08:07:19;23.73;;;12.30;;
15526;SDS011;7865;50.918;4.510;2022-10-18T08:12:21;20.75;;;9.57;;
15526;SDS011;7865;50.918;4.510;2022-10-18T08:17:22;20.48;;;10.10;;
15526;SDS011;7865;50.918;4.510;2022-10-18T08:22:24;22.55;;;10.60;;
15526;SDS011;7865;50.918;4.510;2022-10-18T08:27:25;13.82;;;7.63;;
15526;SDS011;7865;50.918;4.510;2022-10-18T08:32:26;10.48;;;5.53;;
15526;SDS011;7865;50.918;4.510;2022-10-18T08:37:28;13.43;;;4.65;;
15526;SDS011;7865;50.918;4.510;2022-10-18T08:47:57;13.90;;;3.50;;
15526;SDS011;7865;50.918;4.510;2022-10-18T08:53:04;11.93;;;3.67;;
15526;SDS011;7865;50.918;4.510;2022-10-18T08:58:45;14.00;;;3.67;;
15526;SDS011;7865;50.918;4.510;2022-10-18T09:14:43;13.15;;;3.47;;
15526;SDS011;7865;50.918;4.510;2022-10-18T09:20:43;18.98;;;4.82;;
15526;SDS011;7865;50.918;4.510;2022-10-18T09:25:36;12.85;;;4.55;;
15526;SDS011;7865;50.918;4.510;2022-10-18T09:36:42;12.52;;;4.43;;
15526;SDS011;7865;50.918;4.510;2022-10-18T09:47:12;10.18;;;4.28;;
15526;SDS011;7865;50.918;4.510;2022-10-18T09:52:18;10.35;;;4.57;;
15526;SDS011;7865;50.918;4.510;2022-10-18T10:02:29;15.30;;;5.55;;
15526;SDS011;7865;50.918;4.510;2022-10-18T10:07:33;12.50;;;4.15;;
15526;SDS011;7865;50.918;4.510;2022-10-18T10:12:41;12.13;;;3.95;;
15526;SDS011;7865;50.918;4.510;2022-10-18T10:18:06;16.00;;;4.28;;
15526;SDS011;7865;50.918;4.510;2022-10-18T10:28:44;7.93;;;3.30;;
15526;SDS011;7865;50.918;4.510;2022-10-18T10:33:56;14.93;;;3.85;;
15526;SDS011;7865;50.918;4.510;2022-10-18T10:39:12;11.18;;;3.60;;
15526;SDS011;7865;50.918;4.510;2022-10-18T10:44:19;12.38;;;3.30;;
15526;SDS011;7865;50.918;4.510;2022-10-18T10:49:24;10.18;;;3.30;;
15526;SDS011;7865;50.918;4.510;2022-10-18T10:54:42;10.95;;;2.78;;
15526;SDS011;7865;50.918;4.510;2022-10-18T10:59:52;12.63;;;2.80;;
15526;SDS011;7865;50.918;4.510;2022-10-18T11:04:56;13.75;;;2.75;;
15526;SDS011;7865;50.918;4.510;2022-10-18T11:10:15;11.38;;;2.17;;
15526;SDS011;7865;50.918;4.510;2022-10-18T11:15:44;8.70;;;2.50;;
15526;SDS011;7865;50.918;4.510;2022-10-18T11:20:52;15.40;;;3.05;;
15526;SDS011;7865;50.918;4.510;2022-10-18T11:42:31;8.98;;;2.28;;
15526;SDS011;7865;50.918;4.510;2022-10-18T11:53:03;8.07;;;2.38;;
15526;SDS011;7865;50.918;4.510;2022-10-18T11:58:41;8.95;;;2.25;;
15526;SDS011;7865;50.918;4.510;2022-10-18T12:09:25;8.60;;;2.30;;
15526;SDS011;7865;50.918;4.510;2022-10-18T12:14:34;6.22;;;2.15;;
15526;SDS011;7865;50.918;4.510;2022-10-18T12:19:39;8.60;;;2.10;;
15526;SDS011;7865;50.918;4.510;2022-10-18T12:24:42;14.73;;;2.03;;
15526;SDS011;7865;50.918;4.510;2022-10-18T12:29:46;5.63;;;1.40;;
15526;SDS011;7865;50.918;4.510;2022-10-18T12:34:55;10.05;;;2.05;;
15526;SDS011;7865;50.918;4.510;2022-10-18T12:40:16;7.38;;;1.30;;
15526;SDS011;7865;50.918;4.510;2022-10-18T12:45:32;8.40;;;1.95;;
15526;SDS011;7865;50.918;4.510;2022-10-18T12:50:46;7.47;;;1.70;;
15526;SDS011;7865;50.918;4.510;2022-10-18T12:56:33;7.07;;;1.60;;
15526;SDS011;7865;50.918;4.510;2022-10-18T13:01:43;3.80;;;1.45;;
15526;SDS011;7865;50.918;4.510;2022-10-18T13:17:12;5.82;;;2.13;;
15526;SDS011;7865;50.918;4.510;2022-10-18T13:28:01;10.75;;;1.77;;
15526;SDS011;7865;50.918;4.510;2022-10-18T13:38:36;5.28;;;1.48;;
15526;SDS011;7865;50.918;4.510;2022-10-18T14:05:19;5.68;;;1.88;;
15526;SDS011;7865;50.918;4.510;2022-10-18T14:10:41;5.75;;;1.95;;
15526;SDS011;7865;50.918;4.510;2022-10-18T14:16:20;3.70;;;1.50;;
15526;SDS011;7865;50.918;4.510;2022-10-18T14:21:29;9.27;;;2.15;;
15526;SDS011;7865;50.918;4.510;2022-10-18T14:26:34;9.43;;;1.90;;
15526;SDS011;7865;50.918;4.510;2022-10-18T14:31:36;8.30;;;2.03;;
15526;SDS011;7865;50.918;4.510;2022-10-18T14:36:40;6.05;;;1.50;;
15526;SDS011;7865;50.918;4.510;2022-10-18T14:41:47;3.92;;;1.80;;
15526;SDS011;7865;50.918;4.510;2022-10-18T14:46:51;6.63;;;2.00;;
15526;SDS011;7865;50.918;4.510;2022-10-18T14:51:56;8.98;;;2.45;;
15526;SDS011;7865;50.918;4.510;2022-10-18T14:56:59;7.43;;;2.33;;
15526;SDS011;7865;50.918;4.510;2022-10-18T15:02:16;5.10;;;1.98;;
15526;SDS011;7865;50.918;4.510;2022-10-18T15:07:22;5.80;;;1.70;;
15526;SDS011;7865;50.918;4.510;2022-10-18T15:12:25;4.75;;;1.33;;
15526;SDS011;7865;50.918;4.510;2022-10-18T15:17:29;9.93;;;2.00;;
15526;SDS011;7865;50.918;4.510;2022-10-18T15:22:32;6.47;;;1.70;;
15526;SDS011;7865;50.918;4.510;2022-10-18T15:27:34;6.53;;;1.55;;
15526;SDS011;7865;50.918;4.510;2022-10-18T15:32:37;8.75;;;2.17;;
15526;SDS011;7865;50.918;4.510;2022-10-18T15:37:48;7.97;;;2.08;;
15526;SDS011;7865;50.918;4.510;2022-10-18T15:42:50;5.57;;;1.70;;
15526;SDS011;7865;50.918;4.510;2022-10-18T15:53:33;10.90;;;2.40;;
15526;SDS011;7865;50.918;4.510;2022-10-18T15:58:41;5.50;;;1.77;;
15526;SDS011;7865;50.918;4.510;2022-10-18T16:03:44;6.82;;;1.70;;
15526;SDS011;7865;50.918;4.510;2022-10-18T16:08:50;6.60;;;1.60;;
15526;SDS011;7865;50.918;4.510;2022-10-18T16:13:52;7.72;;;1.90;;
15526;SDS011;7865;50.918;4.510;2022-10-18T16:19:00;6.03;;;1.70;;
15526;SDS011;7865;50.918;4.510;2022-10-18T16:24:02;6.03;;;2.08;;
15526;SDS011;7865;50.918;4.510;2022-10-18T16:29:03;9.80;;;1.83;;
15526;SDS011;7865;50.918;4.510;2022-10-18T16:34:05;9.65;;;2.10;;
15526;SDS011;7865;50.918;4.510;2022-10-18T16:39:14;9.55;;;2.42;;
15526;SDS011;7865;50.918;4.510;2022-10-18T16:44:17;11.48;;;2.10;;
15526;SDS011;7865;50.918;4.510;2022-10-18T16:49:19;11.35;;;2.50;;
15526;SDS011;7865;50.918;4.510;2022-10-18T16:54:23;8.57;;;2.10;;
15526;SDS011;7865;50.918;4.510;2022-10-18T16:59:30;8.93;;;1.90;;
15526;SDS011;7865;50.918;4.510;2022-10-18T17:04:32;6.63;;;1.80;;
15526;SDS011;7865;50.918;4.510;2022-10-18T17:09:33;13.52;;;2.90;;
15526;SDS011;7865;50.918;4.510;2022-10-18T17:14:36;12.95;;;2.45;;
15526;SDS011;7865;50.918;4.510;2022-10-18T17:19:38;15.37;;;3.67;;
15526;SDS011;7865;50.918;4.510;2022-10-18T17:24:40;6.97;;;3.35;;
15526;SDS011;7865;50.918;4.510;2022-10-18T17:29:42;10.52;;;5.03;;
15526;SDS011;7865;50.918;4.510;2022-10-18T17:34:43;14.75;;;5.20;;
15526;SDS011;7865;50.918;4.510;2022-10-18T17:39:45;10.40;;;4.43;;
15526;SDS011;7865;50.918;4.510;2022-10-18T17:44:46;9.23;;;3.33;;
15526;SDS011;7865;50.918;4.510;2022-10-18T17:49:48;8.70;;;2.80;;
15526;SDS011;7865;50.918;4.510;2022-10-18T17:54:50;9.63;;;2.70;;
15526;SDS011;7865;50.918;4.510;2022-10-18T17:59:51;7.07;;;2.47;;
15526;SDS011;7865;50.918;4.510;2022-10-18T18:04:55;11.67;;;3.00;;
15526;SDS011;7865;50.918;4.510;2022-10-18T18:09:57;8.10;;;2.50;;
15526;SDS011;7865;50.918;4.510;2022-10-18T18:14:59;9.97;;;3.87;;
15526;SDS011;7865;50.918;4.510;2022-10-18T18:20:00;8.57;;;2.67;;
15526;SDS011;7865;50.918;4.510;2022-10-18T18:25:02;10.40;;;2.70;;
15526;SDS011;7865;50.918;4.510;2022-10-18T18:30:04;10.20;;;3.20;;
15526;SDS011;7865;50.918;4.510;2022-10-18T18:35:10;12.53;;;2.90;;
15526;SDS011;7865;50.918;4.510;2022-10-18T18:40:12;10.07;;;3.23;;
15526;SDS011;7865;50.918;4.510;2022-10-18T18:45:14;5.27;;;2.60;;
15526;SDS011;7865;50.918;4.510;2022-10-18T18:50:15;9.50;;;2.90;;
15526;SDS011;7865;50.918;4.510;2022-10-18T18:55:17;8.77;;;2.90;;
15526;SDS011;7865;50.918;4.510;2022-10-18T19:00:18;7.23;;;3.43;;
15526;SDS011;7865;50.918;4.510;2022-10-18T19:05:20;8.50;;;3.40;;
15526;SDS011;7865;50.918;4.510;2022-10-18T19:10:21;8.77;;;3.73;;
15526;SDS011;7865;50.918;4.510;2022-10-18T19:15:23;8.73;;;3.67;;
15526;SDS011;7865;50.918;4.510;2022-10-18T19:20:25;13.80;;;5.00;;
15526;SDS011;7865;50.918;4.510;2022-10-18T19:25:26;12.10;;;4.37;;
15526;SDS011;7865;50.918;4.510;2022-10-18T19:30:27;9.80;;;5.13;;
15526;SDS011;7865;50.918;4.510;2022-10-18T19:35:29;13.37;;;5.43;;
15526;SDS011;7865;50.918;4.510;2022-10-18T19:40:30;11.90;;;4.67;;
15526;SDS011;7865;50.918;4.510;2022-10-18T19:45:32;7.37;;;4.03;;
15526;SDS011;7865;50.918;4.510;2022-10-18T19:50:33;18.00;;;4.50;;
15526;SDS011;7865;50.918;4.510;2022-10-18T19:55:35;9.97;;;4.43;;
15526;SDS011;7865;50.918;4.510;2022-10-18T20:00:36;9.40;;;4.43;;
15526;SDS011;7865;50.918;4.510;2022-10-18T20:05:38;8.53;;;4.00;;
15526;SDS011;7865;50.918;4.510;2022-10-18T20:10:39;12.73;;;4.50;;
15526;SDS011;7865;50.918;4.510;2022-10-18T20:15:40;11.50;;;4.07;;
15526;SDS011;7865;50.918;4.510;2022-10-18T20:20:42;14.13;;;4.73;;
15526;SDS011;7865;50.918;4.510;2022-10-18T20:25:55;7.63;;;3.90;;
15526;SDS011;7865;50.918;4.510;2022-10-18T20:31:05;11.50;;;4.60;;
15526;SDS011;7865;50.918;4.510;2022-10-18T20:36:09;10.43;;;5.37;;
15526;SDS011;7865;50.918;4.510;2022-10-18T20:46:19;13.93;;;5.73;;
15526;SDS011;7865;50.918;4.510;2022-10-18T20:51:21;8.97;;;4.53;;
15526;SDS011;7865;50.918;4.510;2022-10-18T20:56:23;13.70;;;5.57;;
15526;SDS011;7865;50.918;4.510;2022-10-18T21:01:28;11.00;;;5.10;;
15526;SDS011;7865;50.918;4.510;2022-10-18T21:06:32;14.27;;;5.73;;
15526;SDS011;7865;50.918;4.510;2022-10-18T21:11:38;8.90;;;4.67;;
15526;SDS011;7865;50.918;4.510;2022-10-18T21:16:41;9.40;;;5.67;;
15526;SDS011;7865;50.918;4.510;2022-10-18T21:21:44;12.80;;;6.50;;
15526;SDS011;7865;50.918;4.510;2022-10-18T21:26:47;13.37;;;5.50;;
15526;SDS011;7865;50.918;4.510;2022-10-18T21:31:51;16.30;;;5.80;;
15526;SDS011;7865;50.918;4.510;2022-10-18T21:36:55;11.43;;;5.50;;
15526;SDS011;7865;50.918;4.510;2022-10-18T21:41:56;9.23;;;5.57;;
15526;SDS011;7865;50.918;4.510;2022-10-18T21:46:57;11.53;;;6.10;;
15526;SDS011;7865;50.918;4.510;2022-10-18T21:51:58;12.17;;;7.17;;
15526;SDS011;7865;50.918;4.510;2022-10-18T21:57:03;18.27;;;8.27;;
15526;SDS011;7865;50.918;4.510;2022-10-18T22:02:04;10.83;;;6.20;;
15526;SDS011;7865;50.918;4.510;2022-10-18T22:07:05;7.70;;;5.60;;
15526;SDS011;7865;50.918;4.510;2022-10-18T22:12:07;13.17;;;6.07;;
15526;SDS011;7865;50.918;4.510;2022-10-18T22:17:11;9.90;;;5.97;;
15526;SDS011;7865;50.918;4.510;2022-10-18T22:22:12;11.73;;;6.37;;
15526;SDS011;7865;50.918;4.510;2022-10-18T22:27:14;9.57;;;5.90;;
15526;SDS011;7865;50.918;4.510;2022-10-18T22:32:15;9.60;;;6.50;;
15526;SDS011;7865;50.918;4.510;2022-10-18T22:37:16;11.33;;;6.97;;
15526;SDS011;7865;50.918;4.510;2022-10-18T22:42:17;14.43;;;8.07;;
15526;SDS011;7865;50.918;4.510;2022-10-18T22:47:18;16.17;;;7.87;;
15526;SDS011;7865;50.918;4.510;2022-10-18T22:52:19;15.67;;;7.57;;
15526;SDS011;7865;50.918;4.510;2022-10-18T22:57:20;10.47;;;6.53;;
15526;SDS011;7865;50.918;4.510;2022-10-18T23:02:22;13.90;;;7.17;;
15526;SDS011;7865;50.918;4.510;2022-10-18T23:07:23;12.57;;;7.60;;
15526;SDS011;7865;50.918;4.510;2022-10-18T23:12:24;11.73;;;6.13;;
15526;SDS011;7865;50.918;4.510;2022-10-18T23:17:25;14.70;;;6.97;;
15526;SDS011;7865;50.918;4.510;2022-10-18T23:22:26;14.73;;;7.60;;
15526;SDS011;7865;50.918;4.510;2022-10-18T23:27:27;14.30;;;7.13;;
15526;SDS011;7865;50.918;4.510;2022-10-18T23:32:29;13.63;;;6.73;;
15526;SDS011;7865;50.918;4.510;2022-10-18T23:37:31;11.47;;;7.23;;
15526;SDS011;7865;50.918;4.510;2022-10-18T23:42:33;11.83;;;6.93;;
15526;SDS011;7865;50.918;4.510;2022-10-18T23:47:34;14.20;;;7.27;;
15526;SDS011;7865;50.918;4.510;2022-10-18T23:52:36;11.77;;;7.13;;
15526;SDS011;7865;50.918;4.510;2022-10-18T23:57:37;16.60;;;7.23;;
